sensor_id;sensor_type;location;lat;lon;timestamp;P1;P2;P0
26185;PMS7003;20067;48.764;9.176;2023-07-30T00:02:17;39.00;37.75;29.00
26185;PMS7003;20067;48.764;9.176;2023-07-30T00:04:43;39.00;38.00;30.00
26185;PMS7003;20067;48.764;9.176;2023-07-30T00:07:10;35.50;35.50;28.50
26185;PMS7003;20067;48.764;9.176;2023-07-30T00:09:37;37.25;37.25;29.50
26185;PMS7003;20067;48.764;9.176;2023-07-30T00:14:31;29.50;28.25;24.25
26185;PMS7003;20067;48.764;9.176;2023-07-30T00:16:56;30.25;30.25;25.00
26185;PMS7003;20067;48.764;9.176;2023-07-30T00:19:22;33.75;33.75;26.25
26185;PMS7003;20067;48.764;9.176;2023-07-30T00:21:47;36.00;36.00;29.00
26185;PMS7003;20067;48.764;9.176;2023-07-30T00:24:13;36.75;36.75;28.50
26185;PMS7003;20067;48.764;9.176;2023-07-30T00:26:39;42.00;40.75;32.75
26185;PMS7003;20067;48.764;9.176;2023-07-30T00:29:04;41.67;40.00;33.00
26185;PMS7003;20067;48.764;9.176;2023-07-30T00:31:30;39.33;38.00;30.33
26185;PMS7003;20067;48.764;9.176;2023-07-30T00:33:55;43.00;41.00;33.33
26185;PMS7003;20067;48.764;9.176;2023-07-30T00:36:21;46.00;41.33;34.00
26185;PMS7003;20067;48.764;9.176;2023-07-30T00:38:47;40.67;39.33;32.00
26185;PMS7003;20067;48.764;9.176;2023-07-30T00:41:12;44.67;41.33;34.00
26185;PMS7003;20067;48.764;9.176;2023-07-30T00:43:38;42.00;40.00;32.33
26185;PMS7003;20067;48.764;9.176;2023-07-30T00:46:03;40.33;38.67;32.00
26185;PMS7003;20067;48.764;9.176;2023-07-30T00:48:29;37.50;37.00;29.75
26185;PMS7003;20067;48.764;9.176;2023-07-30T00:50:56;36.50;36.25;29.50
26185;PMS7003;20067;48.764;9.176;2023-07-30T00:53:23;37.75;36.75;29.50
26185;PMS7003;20067;48.764;9.176;2023-07-30T00:55:50;36.25;36.25;28.75
26185;PMS7003;20067;48.764;9.176;2023-07-30T00:58:16;34.00;34.00;28.00
26185;PMS7003;20067;48.764;9.176;2023-07-30T01:00:43;36.75;36.25;29.00
26185;PMS7003;20067;48.764;9.176;2023-07-30T01:03:09;37.75;34.50;28.00
26185;PMS7003;20067;48.764;9.176;2023-07-30T01:05:35;41.00;39.00;32.00
26185;PMS7003;20067;48.764;9.176;2023-07-30T01:08:01;38.33;36.67;28.67
26185;PMS7003;20067;48.764;9.176;2023-07-30T01:10:27;34.00;34.00;28.00
26185;PMS7003;20067;48.764;9.176;2023-07-30T01:12:56;37.25;37.00;29.00
26185;PMS7003;20067;48.764;9.176;2023-07-30T01:15:24;34.50;34.50;28.00
26185;PMS7003;20067;48.764;9.176;2023-07-30T01:17:50;33.00;32.50;26.75
26185;PMS7003;20067;48.764;9.176;2023-07-30T01:20:16;35.00;35.00;28.00
26185;PMS7003;20067;48.764;9.176;2023-07-30T01:22:41;34.75;34.25;27.50
26185;PMS7003;20067;48.764;9.176;2023-07-30T01:25:07;42.00;39.75;31.00
26185;PMS7003;20067;48.764;9.176;2023-07-30T01:27:34;42.50;40.75;31.50
26185;PMS7003;20067;48.764;9.176;2023-07-30T01:32:43;39.50;38.00;29.00
26185;PMS7003;20067;48.764;9.176;2023-07-30T01:35:11;40.33;39.00;30.00
26185;PMS7003;20067;48.764;9.176;2023-07-30T01:37:38;41.33;40.00;31.00
26185;PMS7003;20067;48.764;9.176;2023-07-30T01:40:06;43.33;40.67;31.33
26185;PMS7003;20067;48.764;9.176;2023-07-30T01:42:33;43.67;40.33;32.00
26185;PMS7003;20067;48.764;9.176;2023-07-30T01:44:59;38.50;37.50;29.50
26185;PMS7003;20067;48.764;9.176;2023-07-30T01:47:25;41.75;40.00;30.00
26185;PMS7003;20067;48.764;9.176;2023-07-30T01:49:50;48.33;43.00;34.00
26185;PMS7003;20067;48.764;9.176;2023-07-30T01:52:16;49.67;45.67;34.67
26185;PMS7003;20067;48.764;9.176;2023-07-30T01:54:41;50.00;46.00;35.00
26185;PMS7003;20067;48.764;9.176;2023-07-30T01:57:07;49.67;45.33;35.33
26185;PMS7003;20067;48.764;9.176;2023-07-30T01:59:33;46.67;43.33;33.67
26185;PMS7003;20067;48.764;9.176;2023-07-30T02:01:58;44.00;41.00;33.00
26185;PMS7003;20067;48.764;9.176;2023-07-30T02:04:24;49.67;44.67;35.00
26185;PMS7003;20067;48.764;9.176;2023-07-30T02:06:50;45.33;41.67;34.33
26185;PMS7003;20067;48.764;9.176;2023-07-30T02:09:15;45.00;41.33;33.33
26185;PMS7003;20067;48.764;9.176;2023-07-30T02:11:41;45.67;41.00;34.00
26185;PMS7003;20067;48.764;9.176;2023-07-30T02:14:06;41.50;39.75;31.75
26185;PMS7003;20067;48.764;9.176;2023-07-30T02:16:32;45.67;42.33;33.33
26185;PMS7003;20067;48.764;9.176;2023-07-30T02:18:58;40.00;39.00;31.67
26185;PMS7003;20067;48.764;9.176;2023-07-30T02:21:23;45.33;41.00;32.33
26185;PMS7003;20067;48.764;9.176;2023-07-30T02:23:49;43.67;40.67;31.33
26185;PMS7003;20067;48.764;9.176;2023-07-30T02:26:14;47.00;42.33;33.33
26185;PMS7003;20067;48.764;9.176;2023-07-30T02:28:40;39.25;37.75;29.75
26185;PMS7003;20067;48.764;9.176;2023-07-30T02:31:05;43.00;39.67;30.67
26185;PMS7003;20067;48.764;9.176;2023-07-30T02:33:31;41.25;39.25;30.00
26185;PMS7003;20067;48.764;9.176;2023-07-30T02:35:57;42.00;40.00;32.67
26185;PMS7003;20067;48.764;9.176;2023-07-30T02:38:22;44.67;40.67;32.00
26185;PMS7003;20067;48.764;9.176;2023-07-30T02:40:48;42.00;40.00;32.00
26185;PMS7003;20067;48.764;9.176;2023-07-30T02:43:13;44.67;41.00;34.00
26185;PMS7003;20067;48.764;9.176;2023-07-30T02:45:39;48.00;42.00;32.33
26185;PMS7003;20067;48.764;9.176;2023-07-30T02:48:04;42.50;40.00;32.75
26185;PMS7003;20067;48.764;9.176;2023-07-30T02:50:30;41.00;39.00;30.00
26185;PMS7003;20067;48.764;9.176;2023-07-30T02:52:56;42.50;40.00;31.75
26185;PMS7003;20067;48.764;9.176;2023-07-30T02:55:21;41.00;39.67;30.33
26185;PMS7003;20067;48.764;9.176;2023-07-30T02:57:47;40.75;38.75;31.75
26185;PMS7003;20067;48.764;9.176;2023-07-30T03:00:12;42.33;40.33;32.00
26185;PMS7003;20067;48.764;9.176;2023-07-30T03:02:39;39.00;37.00;28.25
26185;PMS7003;20067;48.764;9.176;2023-07-30T03:05:05;35.75;35.75;28.00
26185;PMS7003;20067;48.764;9.176;2023-07-30T03:07:31;42.25;40.00;32.25
26185;PMS7003;20067;48.764;9.176;2023-07-30T03:09:56;39.00;37.75;28.75
26185;PMS7003;20067;48.764;9.176;2023-07-30T03:12:22;35.75;35.00;27.75
26185;PMS7003;20067;48.764;9.176;2023-07-30T03:14:48;38.25;36.50;29.00
26185;PMS7003;20067;48.764;9.176;2023-07-30T03:17:13;37.25;37.25;29.00
26185;PMS7003;20067;48.764;9.176;2023-07-30T03:19:39;38.00;35.00;27.50
26185;PMS7003;20067;48.764;9.176;2023-07-30T03:22:05;34.00;33.50;26.00
26185;PMS7003;20067;48.764;9.176;2023-07-30T03:24:30;41.75;38.50;30.25
26185;PMS7003;20067;48.764;9.176;2023-07-30T03:26:56;37.25;37.25;29.25
26185;PMS7003;20067;48.764;9.176;2023-07-30T03:29:21;39.75;37.25;29.25
26185;PMS7003;20067;48.764;9.176;2023-07-30T03:31:47;43.75;40.00;32.00
26185;PMS7003;20067;48.764;9.176;2023-07-30T03:34:13;40.00;38.75;30.00
26185;PMS7003;20067;48.764;9.176;2023-07-30T03:36:38;41.50;39.25;31.50
26185;PMS7003;20067;48.764;9.176;2023-07-30T03:39:04;42.50;38.25;30.25
26185;PMS7003;20067;48.764;9.176;2023-07-30T03:41:29;37.50;37.25;29.00
26185;PMS7003;20067;48.764;9.176;2023-07-30T03:43:55;35.25;35.25;28.75
26185;PMS7003;20067;48.764;9.176;2023-07-30T03:46:20;37.75;36.25;29.00
26185;PMS7003;20067;48.764;9.176;2023-07-30T03:48:46;34.25;34.25;27.00
26185;PMS7003;20067;48.764;9.176;2023-07-30T03:51:11;35.75;35.75;28.50
26185;PMS7003;20067;48.764;9.176;2023-07-30T03:53:37;39.50;38.00;29.25
26185;PMS7003;20067;48.764;9.176;2023-07-30T03:56:03;36.25;36.25;28.50
26185;PMS7003;20067;48.764;9.176;2023-07-30T03:58:29;39.25;37.25;30.00
26185;PMS7003;20067;48.764;9.176;2023-07-30T04:00:55;33.75;33.75;27.00
26185;PMS7003;20067;48.764;9.176;2023-07-30T04:03:21;39.75;38.50;29.75
26185;PMS7003;20067;48.764;9.176;2023-07-30T04:05:47;37.00;37.00;29.00
26185;PMS7003;20067;48.764;9.176;2023-07-30T04:08:12;36.50;36.50;29.00
26185;PMS7003;20067;48.764;9.176;2023-07-30T04:10:38;42.00;40.00;30.50
26185;PMS7003;20067;48.764;9.176;2023-07-30T04:13:03;43.50;40.50;31.50
26185;PMS7003;20067;48.764;9.176;2023-07-30T04:15:29;42.25;39.25;30.00
26185;PMS7003;20067;48.764;9.176;2023-07-30T04:17:54;40.50;38.75;30.75
26185;PMS7003;20067;48.764;9.176;2023-07-30T04:20:20;43.25;41.00;31.00
26185;PMS7003;20067;48.764;9.176;2023-07-30T04:22:46;41.25;40.00;30.75
26185;PMS7003;20067;48.764;9.176;2023-07-30T04:25:11;39.75;39.00;29.50
26185;PMS7003;20067;48.764;9.176;2023-07-30T04:27:37;41.00;38.50;30.00
26185;PMS7003;20067;48.764;9.176;2023-07-30T04:30:04;45.00;41.75;33.50
26185;PMS7003;20067;48.764;9.176;2023-07-30T04:32:30;46.00;42.00;35.00
26185;PMS7003;20067;48.764;9.176;2023-07-30T04:34:56;42.00;40.00;32.33
26185;PMS7003;20067;48.764;9.176;2023-07-30T04:37:22;37.75;37.50;28.75
26185;PMS7003;20067;48.764;9.176;2023-07-30T04:39:48;39.75;38.00;30.00
26185;PMS7003;20067;48.764;9.176;2023-07-30T04:42:14;37.25;36.75;28.25
26185;PMS7003;20067;48.764;9.176;2023-07-30T04:44:40;39.50;38.25;29.00
26185;PMS7003;20067;48.764;9.176;2023-07-30T04:47:06;45.00;41.25;32.00
26185;PMS7003;20067;48.764;9.176;2023-07-30T04:49:32;39.75;38.75;29.25
26185;PMS7003;20067;48.764;9.176;2023-07-30T04:51:58;43.50;40.75;32.00
26185;PMS7003;20067;48.764;9.176;2023-07-30T04:54:23;46.67;43.33;35.33
26185;PMS7003;20067;48.764;9.176;2023-07-30T04:56:49;52.00;46.00;35.67
26185;PMS7003;20067;48.764;9.176;2023-07-30T04:59:14;44.50;41.00;33.00
26185;PMS7003;20067;48.764;9.176;2023-07-30T05:01:40;46.67;42.33;34.00
26185;PMS7003;20067;48.764;9.176;2023-07-30T05:04:06;42.75;40.00;32.50
26185;PMS7003;20067;48.764;9.176;2023-07-30T05:06:31;40.25;39.00;30.25
26185;PMS7003;20067;48.764;9.176;2023-07-30T05:08:57;42.75;41.00;33.00
26185;PMS7003;20067;48.764;9.176;2023-07-30T05:11:24;42.00;38.75;31.00
26185;PMS7003;20067;48.764;9.176;2023-07-30T05:13:49;42.00;40.75;33.00
26185;PMS7003;20067;48.764;9.176;2023-07-30T05:16:15;37.00;37.00;29.50
26185;PMS7003;20067;48.764;9.176;2023-07-30T05:18:41;37.75;37.75;29.75
26185;PMS7003;20067;48.764;9.176;2023-07-30T05:21:06;36.00;35.50;29.00
26185;PMS7003;20067;48.764;9.176;2023-07-30T05:23:32;36.25;36.25;29.00
26185;PMS7003;20067;48.764;9.176;2023-07-30T05:25:57;34.50;34.50;27.25
26185;PMS7003;20067;48.764;9.176;2023-07-30T05:28:23;32.50;32.50;27.00
26185;PMS7003;20067;48.764;9.176;2023-07-30T05:30:48;35.25;34.25;28.00
26185;PMS7003;20067;48.764;9.176;2023-07-30T05:33:14;32.25;32.25;26.50
26185;PMS7003;20067;48.764;9.176;2023-07-30T05:35:40;35.00;35.00;28.00
26185;PMS7003;20067;48.764;9.176;2023-07-30T05:38:05;34.00;34.00;27.75
26185;PMS7003;20067;48.764;9.176;2023-07-30T05:40:31;34.25;34.25;28.00
26185;PMS7003;20067;48.764;9.176;2023-07-30T05:42:56;35.50;35.50;28.25
26185;PMS7003;20067;48.764;9.176;2023-07-30T05:45:22;33.75;33.00;27.00
26185;PMS7003;20067;48.764;9.176;2023-07-30T05:47:47;33.75;33.50;28.00
26185;PMS7003;20067;48.764;9.176;2023-07-30T05:50:13;32.50;32.50;26.00
26185;PMS7003;20067;48.764;9.176;2023-07-30T05:52:38;33.75;31.50;26.50
26185;PMS7003;20067;48.764;9.176;2023-07-30T05:55:04;34.00;32.00;26.75
26185;PMS7003;20067;48.764;9.176;2023-07-30T05:57:30;33.00;33.00;27.00
26185;PMS7003;20067;48.764;9.176;2023-07-30T05:59:56;38.00;37.00;29.50
26185;PMS7003;20067;48.764;9.176;2023-07-30T06:02:21;40.00;39.00;30.25
26185;PMS7003;20067;48.764;9.176;2023-07-30T06:04:47;44.50;40.50;32.75
26185;PMS7003;20067;48.764;9.176;2023-07-30T06:07:13;43.75;40.75;33.75
26185;PMS7003;20067;48.764;9.176;2023-07-30T06:09:39;46.33;42.33;34.33
26185;PMS7003;20067;48.764;9.176;2023-07-30T06:12:05;48.00;43.67;34.33
26185;PMS7003;20067;48.764;9.176;2023-07-30T06:14:30;44.25;41.00;33.75
26185;PMS7003;20067;48.764;9.176;2023-07-30T06:16:56;47.00;42.00;35.00
26185;PMS7003;20067;48.764;9.176;2023-07-30T06:19:21;48.67;44.00;35.00
26185;PMS7003;20067;48.764;9.176;2023-07-30T06:21:47;43.00;40.67;32.67
26185;PMS7003;20067;48.764;9.176;2023-07-30T06:24:13;36.00;36.00;28.75
26185;PMS7003;20067;48.764;9.176;2023-07-30T06:26:38;35.75;35.75;29.00
26185;PMS7003;20067;48.764;9.176;2023-07-30T06:29:04;34.00;34.00;27.75
26185;PMS7003;20067;48.764;9.176;2023-07-30T06:31:30;35.00;34.75;27.25
26185;PMS7003;20067;48.764;9.176;2023-07-30T06:33:55;41.50;39.00;29.75
26185;PMS7003;20067;48.764;9.176;2023-07-30T06:36:21;48.33;44.33;31.00
26185;PMS7003;20067;48.764;9.176;2023-07-30T06:38:46;41.67;40.00;30.33
26185;PMS7003;20067;48.764;9.176;2023-07-30T06:41:12;51.33;45.67;35.33
26185;PMS7003;20067;48.764;9.176;2023-07-30T06:43:38;47.67;43.00;31.33
26185;PMS7003;20067;48.764;9.176;2023-07-30T06:46:04;48.00;44.00;34.00
26185;PMS7003;20067;48.764;9.176;2023-07-30T06:48:29;44.67;42.33;32.33
26185;PMS7003;20067;48.764;9.176;2023-07-30T06:50:56;40.25;39.25;31.00
26185;PMS7003;20067;48.764;9.176;2023-07-30T06:53:22;39.25;38.00;29.25
26185;PMS7003;20067;48.764;9.176;2023-07-30T06:55:47;39.75;37.75;29.00
26185;PMS7003;20067;48.764;9.176;2023-07-30T06:58:13;38.50;38.00;29.50
26185;PMS7003;20067;48.764;9.176;2023-07-30T07:00:39;39.50;38.00;29.00
26185;PMS7003;20067;48.764;9.176;2023-07-30T07:03:05;40.00;38.50;29.00
26185;PMS7003;20067;48.764;9.176;2023-07-30T07:05:31;38.25;36.75;28.50
26185;PMS7003;20067;48.764;9.176;2023-07-30T07:07:57;37.75;37.25;29.00
26185;PMS7003;20067;48.764;9.176;2023-07-30T07:10:22;38.50;37.75;29.25
26185;PMS7003;20067;48.764;9.176;2023-07-30T07:12:48;40.00;38.00;30.00
26185;PMS7003;20067;48.764;9.176;2023-07-30T07:15:15;40.67;39.33;30.67
26185;PMS7003;20067;48.764;9.176;2023-07-30T07:17:41;38.50;37.75;29.25
26185;PMS7003;20067;48.764;9.176;2023-07-30T07:20:07;42.00;40.67;31.67
26185;PMS7003;20067;48.764;9.176;2023-07-30T07:22:33;35.50;35.25;29.00
26185;PMS7003;20067;48.764;9.176;2023-07-30T07:24:59;35.50;35.50;28.50
26185;PMS7003;20067;48.764;9.176;2023-07-30T07:27:25;34.00;33.50;28.00
26185;PMS7003;20067;48.764;9.176;2023-07-30T07:29:51;35.50;34.75;29.00
26185;PMS7003;20067;48.764;9.176;2023-07-30T07:32:17;38.50;37.00;28.75
26185;PMS7003;20067;48.764;9.176;2023-07-30T07:34:46;36.00;35.25;28.00
26185;PMS7003;20067;48.764;9.176;2023-07-30T07:37:15;37.75;37.50;30.00
26185;PMS7003;20067;48.764;9.176;2023-07-30T07:39:44;36.75;34.50;28.00
26185;PMS7003;20067;48.764;9.176;2023-07-30T07:42:10;34.50;34.50;27.75
26185;PMS7003;20067;48.764;9.176;2023-07-30T07:44:36;35.50;35.50;28.50
26185;PMS7003;20067;48.764;9.176;2023-07-30T07:47:02;30.25;30.25;25.50
26185;PMS7003;20067;48.764;9.176;2023-07-30T07:49:28;29.75;29.75;25.00
26185;PMS7003;20067;48.764;9.176;2023-07-30T07:51:53;26.00;26.00;22.25
26185;PMS7003;20067;48.764;9.176;2023-07-30T07:54:19;32.50;30.50;26.75
26185;PMS7003;20067;48.764;9.176;2023-07-30T07:56:45;35.25;35.25;28.25
26185;PMS7003;20067;48.764;9.176;2023-07-30T07:59:10;30.25;30.25;25.00
26185;PMS7003;20067;48.764;9.176;2023-07-30T08:01:36;37.75;35.00;29.00
26185;PMS7003;20067;48.764;9.176;2023-07-30T08:04:01;36.00;36.00;28.00
26185;PMS7003;20067;48.764;9.176;2023-07-30T08:06:27;31.50;30.25;25.25
26185;PMS7003;20067;48.764;9.176;2023-07-30T08:08:53;28.25;28.25;24.00
26185;PMS7003;20067;48.764;9.176;2023-07-30T08:11:19;26.50;25.25;21.50
26185;PMS7003;20067;48.764;9.176;2023-07-30T08:13:44;22.00;22.00;18.00
26185;PMS7003;20067;48.764;9.176;2023-07-30T08:16:11;20.25;20.25;17.00
26185;PMS7003;20067;48.764;9.176;2023-07-30T08:18:37;23.00;23.00;19.50
26185;PMS7003;20067;48.764;9.176;2023-07-30T08:21:02;22.25;22.25;18.75
26185;PMS7003;20067;48.764;9.176;2023-07-30T08:23:28;24.50;23.50;20.25
26185;PMS7003;20067;48.764;9.176;2023-07-30T08:25:54;21.00;21.00;17.25
26185;PMS7003;20067;48.764;9.176;2023-07-30T08:28:20;20.50;20.50;17.25
26185;PMS7003;20067;48.764;9.176;2023-07-30T08:30:45;21.75;21.75;18.00
26185;PMS7003;20067;48.764;9.176;2023-07-30T08:33:11;17.75;17.75;13.75
26185;PMS7003;20067;48.764;9.176;2023-07-30T08:35:37;26.00;23.25;21.25
26185;PMS7003;20067;48.764;9.176;2023-07-30T08:38:03;18.25;18.25;15.00
26185;PMS7003;20067;48.764;9.176;2023-07-30T08:40:29;19.25;19.25;17.00
26185;PMS7003;20067;48.764;9.176;2023-07-30T08:42:54;18.50;18.25;14.00
26185;PMS7003;20067;48.764;9.176;2023-07-30T08:45:20;12.50;12.50;9.25
26185;PMS7003;20067;48.764;9.176;2023-07-30T08:47:46;13.75;13.75;9.25
26185;PMS7003;20067;48.764;9.176;2023-07-30T08:50:13;13.25;12.75;7.75
26185;PMS7003;20067;48.764;9.176;2023-07-30T08:52:39;12.25;11.25;7.25
26185;PMS7003;20067;48.764;9.176;2023-07-30T08:55:06;11.00;11.00;7.00
26185;PMS7003;20067;48.764;9.176;2023-07-30T08:57:32;11.25;11.25;7.00
26185;PMS7003;20067;48.764;9.176;2023-07-30T09:00:00;13.00;12.25;8.00
26185;PMS7003;20067;48.764;9.176;2023-07-30T09:02:37;9.00;9.00;6.00
26185;PMS7003;20067;48.764;9.176;2023-07-30T09:05:09;11.50;11.50;7.00
26185;PMS7003;20067;48.764;9.176;2023-07-30T09:07:36;12.25;12.25;7.75
26185;PMS7003;20067;48.764;9.176;2023-07-30T09:10:03;10.25;9.75;4.00
26185;PMS7003;20067;48.764;9.176;2023-07-30T09:12:32;8.00;8.00;3.00
26185;PMS7003;20067;48.764;9.176;2023-07-30T09:14:58;8.75;8.75;4.00
26185;PMS7003;20067;48.764;9.176;2023-07-30T09:17:25;8.00;8.00;3.75
26185;PMS7003;20067;48.764;9.176;2023-07-30T09:19:51;6.75;6.00;2.00
26185;PMS7003;20067;48.764;9.176;2023-07-30T09:22:26;5.00;5.00;2.00
26185;PMS7003;20067;48.764;9.176;2023-07-30T09:24:54;5.75;4.00;1.50
26185;PMS7003;20067;48.764;9.176;2023-07-30T09:27:21;6.25;6.25;2.00
26185;PMS7003;20067;48.764;9.176;2023-07-30T09:29:51;6.50;6.00;2.50
26185;PMS7003;20067;48.764;9.176;2023-07-30T09:32:18;8.25;7.00;2.25
26185;PMS7003;20067;48.764;9.176;2023-07-30T09:34:44;7.25;5.50;3.00
26185;PMS7003;20067;48.764;9.176;2023-07-30T09:37:11;6.50;6.50;3.00
26185;PMS7003;20067;48.764;9.176;2023-07-30T09:39:37;4.60;4.60;2.00
26185;PMS7003;20067;48.764;9.176;2023-07-30T09:42:03;6.50;5.00;2.50
26185;PMS7003;20067;48.764;9.176;2023-07-30T09:44:31;5.00;5.00;2.00
26185;PMS7003;20067;48.764;9.176;2023-07-30T09:46:58;5.25;5.25;3.00
26185;PMS7003;20067;48.764;9.176;2023-07-30T09:49:24;5.50;5.50;2.75
26185;PMS7003;20067;48.764;9.176;2023-07-30T09:51:50;9.00;7.50;3.25
26185;PMS7003;20067;48.764;9.176;2023-07-30T09:54:17;8.20;7.60;3.20
26185;PMS7003;20067;48.764;9.176;2023-07-30T09:56:43;7.00;7.00;3.00
26185;PMS7003;20067;48.764;9.176;2023-07-30T09:59:09;7.75;6.75;3.00
26185;PMS7003;20067;48.764;9.176;2023-07-30T10:01:39;7.50;7.00;3.00
26185;PMS7003;20067;48.764;9.176;2023-07-30T10:04:09;8.00;5.50;3.00
26185;PMS7003;20067;48.764;9.176;2023-07-30T10:06:48;5.00;5.00;2.50
26185;PMS7003;20067;48.764;9.176;2023-07-30T10:09:28;7.00;6.00;2.75
26185;PMS7003;20067;48.764;9.176;2023-07-30T10:11:57;8.00;6.50;3.00
26185;PMS7003;20067;48.764;9.176;2023-07-30T10:14:24;7.00;7.00;4.00
26185;PMS7003;20067;48.764;9.176;2023-07-30T10:16:54;8.00;7.00;3.00
26185;PMS7003;20067;48.764;9.176;2023-07-30T10:19:23;6.00;6.00;3.00
26185;PMS7003;20067;48.764;9.176;2023-07-30T10:21:50;6.75;5.25;3.00
26185;PMS7003;20067;48.764;9.176;2023-07-30T10:24:16;5.00;4.50;2.00
26185;PMS7003;20067;48.764;9.176;2023-07-30T10:26:42;8.00;8.00;3.00
26185;PMS7003;20067;48.764;9.176;2023-07-30T10:31:40;9.25;8.00;4.00
26185;PMS7003;20067;48.764;9.176;2023-07-30T10:34:14;6.00;6.00;2.75
26185;PMS7003;20067;48.764;9.176;2023-07-30T10:36:41;8.50;7.25;3.00
26185;PMS7003;20067;48.764;9.176;2023-07-30T10:39:13;7.00;7.00;3.00
26185;PMS7003;20067;48.764;9.176;2023-07-30T10:41:46;5.00;5.00;2.00
26185;PMS7003;20067;48.764;9.176;2023-07-30T10:44:18;8.00;7.00;3.00
26185;PMS7003;20067;48.764;9.176;2023-07-30T10:46:47;8.00;6.00;3.00
26185;PMS7003;20067;48.764;9.176;2023-07-30T10:49:13;7.25;7.25;3.00
26185;PMS7003;20067;48.764;9.176;2023-07-30T10:51:39;7.25;6.50;2.00
26185;PMS7003;20067;48.764;9.176;2023-07-30T10:54:08;8.50;8.00;3.75
26185;PMS7003;20067;48.764;9.176;2023-07-30T10:56:34;6.00;5.50;3.00
26185;PMS7003;20067;48.764;9.176;2023-07-30T10:59:05;8.00;6.75;2.00
26185;PMS7003;20067;48.764;9.176;2023-07-30T11:01:35;6.00;6.00;3.00
26185;PMS7003;20067;48.764;9.176;2023-07-30T11:04:05;6.00;6.00;3.00
26185;PMS7003;20067;48.764;9.176;2023-07-30T11:06:32;8.00;8.00;3.25
26185;PMS7003;20067;48.764;9.176;2023-07-30T11:08:57;6.50;5.50;2.25
26185;PMS7003;20067;48.764;9.176;2023-07-30T11:11:23;5.00;4.00;2.00
26185;PMS7003;20067;48.764;9.176;2023-07-30T11:13:50;5.50;5.50;2.00
26185;PMS7003;20067;48.764;9.176;2023-07-30T11:16:16;8.50;8.50;3.75
26185;PMS7003;20067;48.764;9.176;2023-07-30T11:18:45;6.75;6.75;3.00
26185;PMS7003;20067;48.764;9.176;2023-07-30T11:21:13;8.50;8.50;3.75
26185;PMS7003;20067;48.764;9.176;2023-07-30T11:23:41;10.00;10.00;4.00
26185;PMS7003;20067;48.764;9.176;2023-07-30T11:26:08;8.25;7.00;3.00
26185;PMS7003;20067;48.764;9.176;2023-07-30T11:28:39;8.50;8.50;3.00
26185;PMS7003;20067;48.764;9.176;2023-07-30T11:31:10;8.25;8.25;3.50
26185;PMS7003;20067;48.764;9.176;2023-07-30T11:33:44;8.00;8.00;4.00
26185;PMS7003;20067;48.764;9.176;2023-07-30T11:36:18;8.00;8.00;3.00
26185;PMS7003;20067;48.764;9.176;2023-07-30T11:38:46;8.80;8.80;4.00
26185;PMS7003;20067;48.764;9.176;2023-07-30T11:41:12;7.40;7.40;4.00
26185;PMS7003;20067;48.764;9.176;2023-07-30T11:43:42;7.25;6.75;3.00
26185;PMS7003;20067;48.764;9.176;2023-07-30T11:46:10;7.50;7.50;4.00
26185;PMS7003;20067;48.764;9.176;2023-07-30T11:48:36;6.75;5.75;3.25
26185;PMS7003;20067;48.764;9.176;2023-07-30T11:51:02;6.00;6.00;2.50
26185;PMS7003;20067;48.764;9.176;2023-07-30T11:53:48;5.00;5.00;3.00
26185;PMS7003;20067;48.764;9.176;2023-07-30T11:56:22;6.75;6.75;3.00
26185;PMS7003;20067;48.764;9.176;2023-07-30T11:58:50;6.20;6.20;3.00
26185;PMS7003;20067;48.764;9.176;2023-07-30T12:01:19;7.00;7.00;3.75
26185;PMS7003;20067;48.764;9.176;2023-07-30T12:03:44;9.00;6.50;3.00
26185;PMS7003;20067;48.764;9.176;2023-07-30T12:06:10;6.25;6.25;3.25
26185;PMS7003;20067;48.764;9.176;2023-07-30T12:08:36;7.00;6.00;3.00
26185;PMS7003;20067;48.764;9.176;2023-07-30T12:11:03;6.25;6.00;4.00
26185;PMS7003;20067;48.764;9.176;2023-07-30T12:13:32;8.25;6.75;4.00
26185;PMS7003;20067;48.764;9.176;2023-07-30T12:15:58;7.00;7.00;3.25
26185;PMS7003;20067;48.764;9.176;2023-07-30T12:18:25;7.25;7.25;3.75
26185;PMS7003;20067;48.764;9.176;2023-07-30T12:20:54;7.40;5.60;3.00
26185;PMS7003;20067;48.764;9.176;2023-07-30T12:23:20;6.80;6.80;3.80
26185;PMS7003;20067;48.764;9.176;2023-07-30T12:25:46;7.00;6.25;3.00
26185;PMS7003;20067;48.764;9.176;2023-07-30T12:28:12;6.25;6.00;3.00
26185;PMS7003;20067;48.764;9.176;2023-07-30T12:30:38;6.00;6.00;3.00
26185;PMS7003;20067;48.764;9.176;2023-07-30T12:33:05;7.00;7.00;3.75
26185;PMS7003;20067;48.764;9.176;2023-07-30T12:35:34;6.50;6.00;3.00
26185;PMS7003;20067;48.764;9.176;2023-07-30T12:37:59;7.00;7.00;3.25
26185;PMS7003;20067;48.764;9.176;2023-07-30T12:40:25;6.75;6.00;3.00
26185;PMS7003;20067;48.764;9.176;2023-07-30T12:42:51;6.25;6.25;2.50
26185;PMS7003;20067;48.764;9.176;2023-07-30T12:45:18;6.00;6.00;3.00
26185;PMS7003;20067;48.764;9.176;2023-07-30T12:47:43;7.00;7.00;3.25
26185;PMS7003;20067;48.764;9.176;2023-07-30T12:50:10;8.25;7.00;3.75
26185;PMS7003;20067;48.764;9.176;2023-07-30T12:52:36;5.50;5.50;3.00
26185;PMS7003;20067;48.764;9.176;2023-07-30T12:55:01;6.50;6.25;3.25
26185;PMS7003;20067;48.764;9.176;2023-07-30T12:57:29;6.00;6.00;3.00
26185;PMS7003;20067;48.764;9.176;2023-07-30T12:59:55;5.00;5.00;3.00
26185;PMS7003;20067;48.764;9.176;2023-07-30T13:02:21;8.50;5.50;2.50
26185;PMS7003;20067;48.764;9.176;2023-07-30T13:04:47;6.50;6.50;3.00
26185;PMS7003;20067;48.764;9.176;2023-07-30T13:07:12;5.25;5.25;3.00
26185;PMS7003;20067;48.764;9.176;2023-07-30T13:09:38;7.25;6.50;3.00
26185;PMS7003;20067;48.764;9.176;2023-07-30T13:12:04;6.00;6.00;3.00
26185;PMS7003;20067;48.764;9.176;2023-07-30T13:14:30;8.75;6.25;3.00
26185;PMS7003;20067;48.764;9.176;2023-07-30T13:16:56;6.00;5.75;3.00
26185;PMS7003;20067;48.764;9.176;2023-07-30T13:19:21;6.00;6.00;3.00
26185;PMS7003;20067;48.764;9.176;2023-07-30T13:21:47;8.25;8.25;4.00
26185;PMS7003;20067;48.764;9.176;2023-07-30T13:24:13;9.00;7.75;4.00
26185;PMS7003;20067;48.764;9.176;2023-07-30T13:26:39;5.00;5.00;2.50
26185;PMS7003;20067;48.764;9.176;2023-07-30T13:29:04;8.00;6.00;3.00
26185;PMS7003;20067;48.764;9.176;2023-07-30T13:31:30;8.25;8.00;2.50
26185;PMS7003;20067;48.764;9.176;2023-07-30T13:33:56;6.75;5.75;2.00
26185;PMS7003;20067;48.764;9.176;2023-07-30T13:36:23;6.00;6.00;3.00
26185;PMS7003;20067;48.764;9.176;2023-07-30T13:38:48;6.25;6.25;3.00
26185;PMS7003;20067;48.764;9.176;2023-07-30T13:41:14;6.00;5.75;2.00
26185;PMS7003;20067;48.764;9.176;2023-07-30T13:43:40;6.00;6.00;3.00
26185;PMS7003;20067;48.764;9.176;2023-07-30T13:46:06;7.00;7.00;3.00
26185;PMS7003;20067;48.764;9.176;2023-07-30T13:48:32;8.00;5.00;2.75
26185;PMS7003;20067;48.764;9.176;2023-07-30T13:50:58;6.25;6.00;3.00
26185;PMS7003;20067;48.764;9.176;2023-07-30T13:53:24;6.00;6.00;4.00
26185;PMS7003;20067;48.764;9.176;2023-07-30T13:55:49;8.75;8.00;4.25
26185;PMS7003;20067;48.764;9.176;2023-07-30T13:58:15;7.25;7.25;4.00
26185;PMS7003;20067;48.764;9.176;2023-07-30T14:00:41;8.25;7.00;3.50
26185;PMS7003;20067;48.764;9.176;2023-07-30T14:03:09;6.00;6.00;3.00